createdAt,value
2018-07-30T00:00:07.866Z,78.07
2018-07-30T00:01:07.853Z,77.37
2018-07-30T00:02:07.843Z,77.37
2018-07-30T00:03:07.825Z,79.48
2018-07-30T00:04:07.821Z,74.95
2018-07-30T00:05:07.809Z,76.56
2018-07-30T00:06:07.795Z,75.15
2018-07-30T00:07:07.785Z,73.85
2018-07-30T00:08:07.771Z,73.55
2018-07-30T00:09:07.768Z,76.06
2018-07-30T00:10:07.758Z,76.67
2018-07-30T00:11:07.745Z,75.15
2018-07-30T00:12:07.735Z,76.67
2018-07-30T00:13:07.720Z,76.76
2018-07-30T00:14:07.715Z,77.77
2018-07-30T00:15:07.693Z,76.93
2018-07-30T00:16:07.683Z,76.67
2018-07-30T00:17:07.677Z,77.53
2018-07-30T00:18:07.665Z,78.67
2018-07-30T00:19:07.658Z,75.56
2018-07-30T00:20:07.641Z,76.16
2018-07-30T00:21:07.636Z,75.05
2018-07-30T00:22:07.641Z,73.44
2018-07-30T00:23:07.620Z,73.61
2018-07-30T00:24:07.603Z,73.51
2018-07-30T00:25:07.592Z,73.31
2018-07-30T00:26:07.582Z,73.21
2018-07-30T00:27:07.565Z,73.21
2018-07-30T00:28:07.551Z,73.38
2018-07-30T00:29:07.548Z,73.78
2018-07-30T00:30:07.534Z,75.09
2018-07-30T00:31:07.528Z,75.09
2018-07-30T00:32:07.516Z,74.58
2018-07-30T00:33:07.502Z,75.09
2018-07-30T00:34:07.488Z,73.88
2018-07-30T00:35:07.474Z,74.98
2018-07-30T00:36:07.471Z,74.11
2018-07-30T00:37:07.460Z,75.09
2018-07-30T00:38:07.446Z,74.98
2018-07-30T00:39:07.448Z,74.48
2018-07-30T00:40:07.420Z,74.58
2018-07-30T00:41:07.410Z,74.18
2018-07-30T00:42:07.403Z,72.57
2018-07-30T00:43:07.393Z,72.57
2018-07-30T00:44:07.381Z,73.27
2018-07-30T00:45:07.370Z,72.27
2018-07-30T00:46:07.354Z,71.47
2018-07-30T00:47:07.344Z,73.38
2018-07-30T00:48:07.382Z,72.64
2018-07-30T00:49:07.322Z,71.67
2018-07-30T00:50:07.314Z,77.16
2018-07-30T00:51:07.306Z,73.18
2018-07-30T00:52:07.288Z,70.93
2018-07-30T00:53:07.275Z,75.55
2018-07-30T00:54:07.270Z,72.13
2018-07-30T00:55:07.262Z,73.14
2018-07-30T00:56:07.249Z,72.33
2018-07-30T00:57:07.238Z,73.54
2018-07-30T00:58:07.227Z,76.45
2018-07-30T00:59:07.209Z,75.05
2018-07-30T01:00:07.199Z,74.95
2018-07-30T01:01:07.189Z,71.43
2018-07-30T01:02:07.184Z,71.43
2018-07-30T01:03:07.195Z,70.76
2018-07-30T01:04:07.175Z,71.43
2018-07-30T01:05:07.148Z,71.53
2018-07-30T01:06:07.139Z,71.73
2018-07-30T01:07:07.122Z,72.24
2018-07-30T01:08:07.115Z,72.13
2018-07-30T01:09:07.103Z,70.96
2018-07-30T01:10:07.096Z,70.73
2018-07-30T01:11:07.088Z,70.56
2018-07-30T01:12:07.067Z,71.23
2018-07-30T01:13:07.056Z,71.03
2018-07-30T01:14:07.064Z,71.63
2018-07-30T01:15:07.039Z,69.52
2018-07-30T01:16:07.054Z,72.33
2018-07-30T01:17:07.019Z,70.93
2018-07-30T01:18:07.002Z,70.23
2018-07-30T01:19:06.994Z,69.62
2018-07-30T01:20:06.980Z,70.43
2018-07-30T01:21:06.970Z,72.44
2018-07-30T01:22:06.965Z,71.73
2018-07-30T01:23:06.951Z,72.33
2018-07-30T01:24:06.933Z,71.63
2018-07-30T01:25:06.925Z,71.53
2018-07-30T01:26:06.916Z,75.09
2018-07-30T01:27:06.910Z,73.27
2018-07-30T01:28:06.896Z,73.68
2018-07-30T01:29:06.883Z,74.78
2018-07-30T01:30:06.869Z,72.87
2018-07-30T01:31:06.857Z,75.22
2018-07-30T01:32:06.851Z,73.81
2018-07-30T01:33:06.836Z,75.02
2018-07-30T01:34:06.848Z,75.02
2018-07-30T01:35:06.819Z,74.62
2018-07-30T01:36:06.808Z,73.21
2018-07-30T01:37:06.808Z,73.61
2018-07-30T01:38:06.781Z,74.65
2018-07-30T01:39:06.769Z,74.85
2018-07-30T01:40:06.764Z,76.46
2018-07-30T01:41:06.749Z,75.35
2018-07-30T01:42:06.740Z,75.86
2018-07-30T01:43:06.731Z,72.67
2018-07-30T01:44:06.713Z,74.69
2018-07-30T01:45:06.710Z,74.29
2018-07-30T01:46:06.696Z,76.90
2018-07-30T01:47:06.690Z,75.39
2018-07-30T01:48:06.678Z,75.79
2018-07-30T01:49:06.681Z,75.29
2018-07-30T01:50:06.650Z,75.02
2018-07-30T01:51:06.636Z,76.94
2018-07-30T01:52:06.632Z,78.45
2018-07-30T01:53:06.635Z,76.43
2018-07-30T01:54:06.603Z,76.43
2018-07-30T01:55:06.596Z,78.55
2018-07-30T01:56:06.589Z,79.60
2018-07-30T01:57:06.600Z,78.79
2018-07-30T01:58:06.560Z,77.88
2018-07-30T01:59:06.551Z,80.70
2018-07-30T02:00:06.540Z,79.19
2018-07-30T02:01:06.528Z,79.93
2018-07-30T02:02:06.541Z,80.33
2018-07-30T02:03:06.515Z,80.64
2018-07-30T02:04:06.498Z,80.54
2018-07-30T02:05:06.491Z,80.04
2018-07-30T02:06:06.474Z,79.33
2018-07-30T02:07:06.542Z,79.53
2018-07-30T02:08:06.454Z,79.43
2018-07-30T02:09:06.444Z,80.18
2018-07-30T02:10:06.449Z,81.04
2018-07-30T02:11:06.425Z,80.68
2018-07-30T02:12:06.411Z,81.38
2018-07-30T02:13:06.401Z,81.79
2018-07-30T02:14:06.396Z,81.48
2018-07-30T02:15:06.382Z,82.09
2018-07-30T02:16:06.373Z,82.50
2018-07-30T02:17:06.376Z,84.05
2018-07-30T02:18:06.364Z,83.84
2018-07-30T02:19:06.362Z,83.24
2018-07-30T02:20:06.330Z,83.34
2018-07-30T02:21:06.313Z,81.82
2018-07-30T02:22:06.320Z,82.07
2018-07-30T02:23:06.326Z,81.56
2018-07-30T02:24:06.287Z,83.38
2018-07-30T02:25:06.285Z,83.28
2018-07-30T02:26:06.259Z,82.64
2018-07-30T02:27:06.269Z,82.33
2018-07-30T02:28:06.243Z,82.33
2018-07-30T02:29:06.244Z,82.57
2018-07-30T02:30:06.217Z,82.03
2018-07-30T02:31:06.209Z,79.50
2018-07-30T02:32:06.199Z,81.42
2018-07-30T02:33:06.215Z,81.52
2018-07-30T02:34:06.180Z,80.31
2018-07-30T02:35:06.166Z,78.16
2018-07-30T02:36:06.158Z,80.27
2018-07-30T02:37:06.148Z,80.88
2018-07-30T02:38:06.130Z,78.36
2018-07-30T02:39:06.124Z,78.66
2018-07-30T02:40:06.114Z,79.16
2018-07-30T02:41:06.097Z,79.27
2018-07-30T02:42:06.143Z,79.67
2018-07-30T02:43:06.081Z,79.16
2018-07-30T02:44:06.073Z,78.16
2018-07-30T02:45:06.055Z,78.12
2018-07-30T02:46:06.054Z,78.06
2018-07-30T02:47:06.040Z,79.27
2018-07-30T02:48:06.027Z,78.96
2018-07-30T02:49:06.038Z,78.83
2018-07-30T02:50:06.006Z,76.91
2018-07-30T02:51:05.999Z,77.62
2018-07-30T02:52:05.982Z,77.38
2018-07-30T02:53:05.969Z,78.63
2018-07-30T02:54:05.985Z,78.63
2018-07-30T02:55:05.952Z,77.51
2018-07-30T02:56:05.941Z,79.03
2018-07-30T02:57:05.938Z,78.22
2018-07-30T02:58:05.926Z,79.77
2018-07-30T02:59:05.927Z,78.76
2018-07-30T03:00:05.903Z,78.96
2018-07-30T03:01:05.891Z,77.86
2018-07-30T03:02:05.873Z,78.96
2018-07-30T03:03:05.864Z,78.56
2018-07-30T03:04:05.877Z,78.66
2018-07-30T03:05:05.851Z,77.75
2018-07-30T03:06:05.857Z,78.76
2018-07-30T03:07:05.833Z,78.76
2018-07-30T03:08:05.811Z,79.57
2018-07-30T03:09:05.801Z,79.57
2018-07-30T03:10:05.793Z,79.06
2018-07-30T03:11:05.780Z,79.06
2018-07-30T03:12:05.769Z,79.06
2018-07-30T03:13:05.763Z,78.96
2018-07-30T03:14:05.766Z,78.56
2018-07-30T03:15:05.755Z,77.55
2018-07-30T03:16:05.736Z,77.35
2018-07-30T03:17:05.720Z,78.86
2018-07-30T03:18:05.703Z,80.07
2018-07-30T03:19:05.697Z,78.86
2018-07-30T03:20:05.695Z,77.31
2018-07-30T03:21:05.668Z,76.81
2018-07-30T03:22:05.669Z,78.83
2018-07-30T03:23:05.651Z,77.82
2018-07-30T03:24:05.668Z,77.72
2018-07-30T03:25:05.632Z,76.00
2018-07-30T03:26:05.617Z,77.88
2018-07-30T03:27:05.606Z,76.27
2018-07-30T03:28:05.600Z,76.94
2018-07-30T03:29:05.593Z,76.97
2018-07-30T03:30:05.581Z,77.17
2018-07-30T03:31:05.566Z,76.97
2018-07-30T03:32:05.552Z,77.38
2018-07-30T03:33:05.538Z,77.08
2018-07-30T03:34:05.546Z,77.58
2018-07-30T03:35:05.552Z,77.38
2018-07-30T03:36:05.522Z,76.77
2018-07-30T03:37:05.530Z,77.78
2018-07-30T03:38:05.489Z,77.28
2018-07-30T03:39:05.490Z,77.21
2018-07-30T03:40:05.493Z,76.91
2018-07-30T03:41:05.460Z,77.48
2018-07-30T03:42:05.448Z,77.88
2018-07-30T03:43:05.435Z,78.63
2018-07-30T03:44:05.424Z,78.89
2018-07-30T03:45:05.424Z,77.51
2018-07-30T03:46:05.445Z,78.92
2018-07-30T03:47:05.389Z,78.52
2018-07-30T03:48:05.388Z,79.49
2018-07-30T03:49:05.373Z,79.80
2018-07-30T03:50:05.357Z,78.52
2018-07-30T03:51:05.397Z,80.24
2018-07-30T03:52:05.353Z,79.23
2018-07-30T03:53:05.324Z,78.19
2018-07-30T03:54:05.318Z,78.63
2018-07-30T03:55:05.307Z,79.63
2018-07-30T03:56:05.310Z,78.63
2018-07-30T03:57:05.286Z,79.33
2018-07-30T03:58:05.340Z,80.13
2018-07-30T03:59:05.260Z,79.63
2018-07-30T04:00:05.330Z,81.85
2018-07-30T04:01:05.241Z,79.23
2018-07-30T04:02:05.232Z,78.36
2018-07-30T04:03:05.237Z,79.57
2018-07-30T04:04:05.243Z,79.43
2018-07-30T04:05:05.193Z,78.66
2018-07-30T04:06:05.234Z,79.53
2018-07-30T04:07:05.177Z,78.63
2018-07-30T04:08:05.167Z,79.23
2018-07-30T04:09:05.160Z,80.33
2018-07-30T04:10:05.155Z,79.67
2018-07-30T04:11:05.156Z,79.87
2018-07-30T04:12:05.134Z,79.77
2018-07-30T04:13:05.108Z,78.86
2018-07-30T04:14:05.104Z,79.06
2018-07-30T04:15:05.099Z,78.83
2018-07-30T04:16:05.088Z,78.83
2018-07-30T04:17:05.072Z,77.62
2018-07-30T04:18:05.056Z,77.08
2018-07-30T04:19:05.056Z,76.87
2018-07-30T04:20:05.039Z,76.74
2018-07-30T04:21:05.050Z,75.83
2018-07-30T04:22:05.070Z,76.74
2018-07-30T04:23:05.019Z,76.64
2018-07-30T04:24:04.993Z,75.33
2018-07-30T04:25:04.981Z,76.84
2018-07-30T04:26:05.012Z,76.74
2018-07-30T04:27:04.969Z,76.54
2018-07-30T04:28:04.962Z,75.93
2018-07-30T04:29:04.951Z,76.34
2018-07-30T04:30:04.927Z,75.13
2018-07-30T04:31:04.919Z,73.72
2018-07-30T04:32:04.910Z,76.54
2018-07-30T04:33:04.919Z,74.82
2018-07-30T04:34:04.891Z,73.32
2018-07-30T04:35:04.881Z,73.28
2018-07-30T04:36:04.870Z,76.43
2018-07-30T04:37:04.869Z,74.82
2018-07-30T04:38:04.851Z,73.98
2018-07-30T04:39:04.836Z,75.29
2018-07-30T04:40:04.855Z,75.70
2018-07-30T04:41:04.819Z,73.58
2018-07-30T04:42:04.827Z,73.58
2018-07-30T04:43:04.790Z,73.38
2018-07-30T04:44:04.780Z,72.57
2018-07-30T04:45:04.768Z,73.04
2018-07-30T04:46:04.765Z,74.08
2018-07-30T04:47:04.756Z,75.19
2018-07-30T04:48:04.744Z,74.18
2018-07-30T04:49:04.751Z,74.18
2018-07-30T04:50:04.720Z,75.99
2018-07-30T04:51:04.709Z,76.84
2018-07-30T04:52:04.727Z,77.81
2018-07-30T04:53:04.703Z,77.04
2018-07-30T04:54:04.684Z,75.73
2018-07-30T04:55:04.665Z,75.73
2018-07-30T04:56:04.652Z,73.61
2018-07-30T04:57:04.675Z,77.14
2018-07-30T04:58:04.638Z,74.22
2018-07-30T04:59:04.623Z,72.71
2018-07-30T05:00:04.629Z,72.47
2018-07-30T05:01:04.606Z,72.47
2018-07-30T05:02:04.589Z,70.56
2018-07-30T05:03:04.580Z,71.36
2018-07-30T05:04:04.568Z,72.77
2018-07-30T05:05:04.555Z,71.13
2018-07-30T05:06:04.558Z,73.44
2018-07-30T05:07:04.549Z,70.93
2018-07-30T05:08:04.527Z,71.40
2018-07-30T05:09:04.512Z,71.53
2018-07-30T05:10:04.509Z,72.24
2018-07-30T05:11:04.499Z,71.80
2018-07-30T05:12:04.498Z,71.50
2018-07-30T05:13:04.478Z,72.20
2018-07-30T05:14:04.458Z,72.44
2018-07-30T05:15:04.481Z,71.40
2018-07-30T05:16:04.445Z,73.00
2018-07-30T05:17:04.433Z,73.11
2018-07-30T05:18:04.449Z,75.42
2018-07-30T05:19:04.408Z,74.62
2018-07-30T05:20:04.400Z,76.76
2018-07-30T05:21:04.397Z,76.56
2018-07-30T05:22:04.372Z,76.87
2018-07-30T05:23:04.363Z,76.36
2018-07-30T05:24:04.357Z,79.22
2018-07-30T05:25:04.347Z,77.91
2018-07-30T05:26:04.340Z,79.02
2018-07-30T05:27:04.321Z,78.71
2018-07-30T05:28:04.310Z,78.21
2018-07-30T05:29:04.299Z,78.91
2018-07-30T05:30:04.296Z,77.40
2018-07-30T05:31:04.279Z,77.00
2018-07-30T05:32:04.275Z,78.35
2018-07-30T05:33:04.275Z,79.72
2018-07-30T05:34:04.255Z,79.32
2018-07-30T05:35:04.247Z,78.85
2018-07-30T05:36:04.267Z,80.26
2018-07-30T05:37:04.229Z,81.63
2018-07-30T05:38:04.238Z,80.46
2018-07-30T05:39:04.248Z,80.97
2018-07-30T05:40:04.179Z,81.27
2018-07-30T05:41:04.165Z,79.66
2018-07-30T05:42:04.160Z,81.27
2018-07-30T05:43:04.158Z,80.32
2018-07-30T05:44:04.137Z,80.52
2018-07-30T05:45:04.139Z,79.82
2018-07-30T05:46:04.113Z,79.52
2018-07-30T05:47:04.103Z,80.73
2018-07-30T05:48:04.088Z,80.32
2018-07-30T05:49:04.091Z,77.77
2018-07-30T05:50:04.125Z,78.47
2018-07-30T05:51:04.062Z,80.05
2018-07-30T05:52:04.049Z,81.35
2018-07-30T05:53:04.041Z,80.25
2018-07-30T05:54:04.022Z,79.35
2018-07-30T05:55:04.019Z,80.01
2018-07-30T05:56:04.008Z,78.40
2018-07-30T05:57:04.008Z,76.76
2018-07-30T05:58:03.981Z,75.45
2018-07-30T05:59:03.969Z,73.94
2018-07-30T06:00:03.960Z,74.11
2018-07-30T06:01:03.945Z,72.20
2018-07-30T06:02:03.941Z,71.26
2018-07-30T06:03:03.929Z,70.63
2018-07-30T06:04:03.918Z,70.50
2018-07-30T06:05:03.927Z,72.09
2018-07-30T06:06:03.894Z,70.69
2018-07-30T06:07:03.884Z,69.56
2018-07-30T06:08:03.887Z,72.77
2018-07-30T06:09:03.860Z,74.27
2018-07-30T06:10:03.880Z,75.17
2018-07-30T06:11:03.841Z,74.67
2018-07-30T06:12:03.832Z,75.27
2018-07-30T06:13:03.813Z,74.47
2018-07-30T06:14:03.808Z,72.56
2018-07-30T06:15:03.797Z,74.27
2018-07-30T06:16:03.798Z,72.97
2018-07-30T06:17:03.777Z,76.28
2018-07-30T06:18:03.779Z,73.07
2018-07-30T06:19:03.749Z,75.97
2018-07-30T06:20:03.751Z,75.57
2018-07-30T06:21:03.838Z,74.84
2018-07-30T06:22:03.729Z,74.73
2018-07-30T06:23:03.725Z,76.74
2018-07-30T06:24:03.700Z,72.03
2018-07-30T06:25:03.699Z,70.93
2018-07-30T06:26:03.706Z,70.29
2018-07-30T06:27:03.663Z,70.59
2018-07-30T06:28:03.654Z,68.69
2018-07-30T06:29:03.646Z,69.86
2018-07-30T06:30:03.629Z,70.86
2018-07-30T06:31:03.648Z,71.46
2018-07-30T06:32:03.609Z,70.46
2018-07-30T06:33:03.596Z,70.73
2018-07-30T06:34:03.592Z,68.73
2018-07-30T06:35:03.593Z,69.32
2018-07-30T06:36:03.569Z,68.52
2018-07-30T06:37:03.564Z,67.79
2018-07-30T06:38:03.542Z,66.89
2018-07-30T06:39:03.562Z,67.96
2018-07-30T06:40:03.523Z,66.16
2018-07-30T06:41:03.526Z,67.23
2018-07-30T06:42:03.508Z,66.73
2018-07-30T06:43:03.493Z,67.93
2018-07-30T06:44:03.480Z,65.53
2018-07-30T06:45:03.473Z,65.10
2018-07-30T06:46:03.463Z,65.43
2018-07-30T06:47:03.527Z,67.23
2018-07-30T06:48:03.568Z,67.40
2018-07-30T06:49:03.434Z,66.89
2018-07-30T06:50:03.414Z,66.30
2018-07-30T06:51:03.413Z,65.20
2018-07-30T06:52:03.398Z,64.97
2018-07-30T06:53:03.385Z,62.87
2018-07-30T06:54:03.386Z,62.64
2018-07-30T06:55:03.367Z,61.74
2018-07-30T06:56:03.355Z,61.25
2018-07-30T06:57:03.347Z,61.41
2018-07-30T06:58:03.327Z,60.19
2018-07-30T06:59:03.324Z,62.38
2018-07-30T07:00:03.338Z,60.36
2018-07-30T07:01:03.304Z,59.86
2018-07-30T07:02:03.388Z,59.66
2018-07-30T07:03:03.282Z,59.27
2018-07-30T07:04:03.269Z,59.44
2018-07-30T07:05:03.256Z,60.06
2018-07-30T07:06:03.248Z,58.84
2018-07-30T07:07:03.241Z,59.44
2018-07-30T07:08:03.251Z,58.84
2018-07-30T07:09:03.255Z,61.93
2018-07-30T07:10:03.212Z,58.54
2018-07-30T07:11:03.225Z,58.22
2018-07-30T07:12:03.240Z,59.01
2018-07-30T07:13:03.169Z,58.31
2018-07-30T07:14:03.165Z,58.01
2018-07-30T07:15:03.150Z,58.71
2018-07-30T07:16:03.136Z,59.41
2018-07-30T07:17:03.259Z,59.61
2018-07-30T07:18:03.156Z,61.69
2018-07-30T07:19:03.106Z,59.41
2018-07-30T07:20:03.109Z,59.01
2018-07-30T07:21:03.115Z,60.50
2018-07-30T07:22:03.159Z,57.92
2018-07-30T07:23:03.070Z,58.31
2018-07-30T07:24:03.082Z,57.69
2018-07-30T07:25:03.041Z,57.69
2018-07-30T07:26:03.037Z,58.06
2018-07-30T07:27:03.056Z,58.06
2018-07-30T07:28:03.112Z,58.33
2018-07-30T07:29:03.042Z,56.51
2018-07-30T07:30:02.997Z,56.49
2018-07-30T07:31:02.979Z,55.19
2018-07-30T07:32:02.999Z,54.08
2018-07-30T07:33:02.959Z,55.54
2018-07-30T07:34:02.948Z,54.52
2018-07-30T07:35:02.979Z,51.84
2018-07-30T07:36:02.935Z,52.14
2018-07-30T07:37:02.913Z,52.64
2018-07-30T07:38:02.904Z,52.34
2018-07-30T07:39:02.895Z,52.34
2018-07-30T07:40:02.895Z,51.84
2018-07-30T07:41:02.878Z,50.46
2018-07-30T07:42:02.892Z,53.13
2018-07-30T07:43:02.845Z,59.18
2018-07-30T07:44:02.860Z,53.11
2018-07-30T07:45:02.930Z,49.44
2018-07-30T07:46:02.829Z,47.26
2018-07-30T07:47:02.809Z,47.66
2018-07-30T07:48:02.794Z,47.44
2018-07-30T07:49:02.788Z,49.42
2018-07-30T07:50:02.787Z,48.11
2018-07-30T07:51:02.986Z,45.73
2018-07-30T07:52:02.760Z,50.88
2018-07-30T07:53:02.753Z,46.89
2018-07-30T07:54:02.732Z,47.78
2018-07-30T07:55:02.746Z,49.27
2018-07-30T07:56:02.709Z,45.81
2018-07-30T07:57:02.711Z,51.54
2018-07-30T07:58:02.695Z,48.06
2018-07-30T07:59:02.688Z,49.37
2018-07-30T08:00:02.868Z,50.93
2018-07-30T08:01:02.689Z,50.53
2018-07-30T08:02:02.708Z,49.35
2018-07-30T08:03:02.640Z,49.84
2018-07-30T08:04:02.632Z,50.53
2018-07-30T08:05:02.622Z,49.25
2018-07-30T08:06:02.641Z,49.15
2018-07-30T08:07:02.593Z,48.55
2018-07-30T08:08:02.590Z,47.64
2018-07-30T08:09:02.575Z,46.26
2018-07-30T08:10:02.585Z,45.84
2018-07-30T08:11:02.640Z,47.32
2018-07-30T08:12:02.557Z,46.39
2018-07-30T08:13:02.540Z,46.39
2018-07-30T08:14:02.538Z,50.81
2018-07-30T08:15:02.518Z,44.57
2018-07-30T08:16:02.525Z,44.10
2018-07-30T08:17:02.499Z,47.45
2018-07-30T08:18:02.487Z,44.27
2018-07-30T08:19:02.477Z,44.69
2018-07-30T08:20:02.460Z,48.61
2018-07-30T08:21:02.473Z,49.99
2018-07-30T08:22:02.445Z,47.43
2018-07-30T08:23:02.437Z,43.38
2018-07-30T08:24:02.448Z,45.83
2018-07-30T08:25:02.422Z,48.98
2018-07-30T08:26:02.436Z,43.98
2018-07-30T08:27:02.388Z,44.18
2018-07-30T08:28:02.378Z,43.88
2018-07-30T08:29:02.459Z,48.91
2018-07-30T08:30:02.363Z,47.50
2018-07-30T08:31:02.353Z,44.87
2018-07-30T08:32:02.345Z,42.20
2018-07-30T08:33:02.407Z,43.19
2018-07-30T08:34:02.319Z,44.67
2018-07-30T08:35:02.305Z,43.09
2018-07-30T08:36:02.300Z,46.15
2018-07-30T08:37:02.296Z,47.45
2018-07-30T08:38:02.275Z,44.59
2018-07-30T08:39:02.262Z,45.28
2018-07-30T08:40:02.263Z,47.35
2018-07-30T08:41:02.244Z,45.08
2018-07-30T08:42:02.243Z,49.25
2018-07-30T08:43:02.229Z,43.33
2018-07-30T08:44:02.227Z,45.78
2018-07-30T08:45:02.234Z,44.61
2018-07-30T08:46:02.195Z,43.03
2018-07-30T08:47:02.211Z,45.79
2018-07-30T08:48:02.183Z,49.33
2018-07-30T08:49:02.192Z,44.79
2018-07-30T08:50:02.161Z,45.56
2018-07-30T08:51:02.164Z,44.37
2018-07-30T08:52:02.129Z,43.38
2018-07-30T08:53:02.140Z,44.94
2018-07-30T08:54:02.115Z,44.33
2018-07-30T08:55:02.106Z,43.44
2018-07-30T08:56:02.100Z,44.31
2018-07-30T08:57:02.085Z,41.33
2018-07-30T08:58:02.085Z,41.41
2018-07-30T08:59:02.068Z,44.34
2018-07-30T09:00:02.068Z,40.51
2018-07-30T09:01:02.041Z,41.39
2018-07-30T09:02:02.034Z,41.80
2018-07-30T09:03:02.028Z,43.16
2018-07-30T09:04:02.021Z,42.40
2018-07-30T09:05:02.003Z,45.09
2018-07-30T09:06:02.003Z,45.09
2018-07-30T09:07:02.003Z,45.86
2018-07-30T09:08:02.932Z,47.92
2018-07-30T09:09:01.962Z,41.83
2018-07-30T09:10:01.950Z,42.40
2018-07-30T09:11:01.939Z,41.29
2018-07-30T09:12:01.930Z,40.19
2018-07-30T09:13:01.941Z,41.94
2018-07-30T09:14:01.916Z,39.70
2018-07-30T09:15:01.911Z,39.03
2018-07-30T09:16:01.903Z,39.60
2018-07-30T09:17:01.887Z,39.95
2018-07-30T09:18:01.873Z,39.76
2018-07-30T09:19:01.863Z,38.85
2018-07-30T09:20:01.874Z,37.56
2018-07-30T09:21:01.863Z,39.92
2018-07-30T09:22:01.836Z,39.64
2018-07-30T09:23:01.826Z,38.68
2018-07-30T09:24:01.826Z,39.00
2018-07-30T09:25:01.803Z,43.69
2018-07-30T09:26:01.813Z,41.82
2018-07-30T09:27:01.790Z,42.21
2018-07-30T09:28:01.799Z,40.43
2018-07-30T09:29:01.770Z,39.64
2018-07-30T09:30:01.755Z,38.35
2018-07-30T09:31:01.744Z,41.78
2018-07-30T09:32:01.743Z,40.58
2018-07-30T09:33:01.970Z,40.61
2018-07-30T09:34:01.722Z,39.03
2018-07-30T09:35:01.711Z,38.82
2018-07-30T09:36:01.711Z,39.11
2018-07-30T09:37:01.690Z,39.80
2018-07-30T09:38:01.692Z,39.51
2018-07-30T09:39:01.762Z,39.61
2018-07-30T09:40:01.663Z,40.72
2018-07-30T09:41:01.650Z,40.11
2018-07-30T09:42:01.638Z,39.14
2018-07-30T09:43:01.634Z,40.09
2018-07-30T09:44:01.642Z,39.01
2018-07-30T09:45:01.619Z,37.54
2018-07-30T09:46:01.601Z,37.82
2018-07-30T09:47:01.592Z,39.19
2018-07-30T09:48:01.585Z,37.43
2018-07-30T09:49:01.608Z,37.41
2018-07-30T09:50:01.564Z,38.88
2018-07-30T09:51:01.545Z,37.21
2018-07-30T09:52:01.542Z,38.68
2018-07-30T09:53:01.540Z,38.60
2018-07-30T09:54:01.561Z,43.60
2018-07-30T09:55:01.511Z,38.02
2018-07-30T09:56:01.494Z,40.56
2018-07-30T09:57:01.509Z,41.35
2018-07-30T09:58:01.482Z,38.62
2018-07-30T09:59:01.480Z,41.66
2018-07-30T10:00:01.468Z,41.94
2018-07-30T10:01:01.447Z,43.23
2018-07-30T10:02:01.435Z,43.05
2018-07-30T10:03:01.426Z,40.72
2018-07-30T10:04:01.412Z,39.25
2018-07-30T10:05:01.411Z,40.11
2018-07-30T10:06:01.472Z,38.56
2018-07-30T10:07:01.387Z,38.76
2018-07-30T10:08:01.397Z,38.46
2018-07-30T10:09:01.364Z,38.48
2018-07-30T10:10:01.401Z,40.25
2018-07-30T10:11:01.342Z,42.80
2018-07-30T10:12:01.347Z,40.45
2018-07-30T10:13:01.357Z,43.10
2018-07-30T10:14:01.313Z,38.90
2018-07-30T10:15:01.299Z,40.06
2018-07-30T10:16:01.306Z,41.14
2018-07-30T10:17:01.280Z,38.78
2018-07-30T10:18:01.359Z,38.78
2018-07-30T10:19:01.265Z,39.78
2018-07-30T10:20:01.256Z,38.88
2018-07-30T10:21:01.253Z,43.39
2018-07-30T10:22:01.230Z,40.45
2018-07-30T10:23:01.220Z,40.45
2018-07-30T10:24:01.207Z,40.56
2018-07-30T10:25:01.246Z,39.86
2018-07-30T10:26:01.199Z,38.98
2018-07-30T10:27:01.203Z,41.03
2018-07-30T10:28:01.167Z,38.60
2018-07-30T10:29:01.159Z,40.64
2018-07-30T10:30:01.170Z,38.78
2018-07-30T10:31:01.186Z,39.27
2018-07-30T10:32:01.168Z,45.43
2018-07-30T10:33:01.128Z,44.16
2018-07-30T10:34:01.115Z,40.94
2018-07-30T10:35:01.097Z,40.84
2018-07-30T10:36:01.095Z,42.41
2018-07-30T10:37:01.093Z,39.74
2018-07-30T10:38:01.087Z,42.00
2018-07-30T10:39:01.061Z,38.56
2018-07-30T10:40:01.052Z,38.66
2018-07-30T10:41:01.039Z,39.64
2018-07-30T10:42:01.057Z,38.88
2018-07-30T10:43:01.023Z,37.50
2018-07-30T10:44:01.011Z,36.91
2018-07-30T10:45:00.998Z,37.50
2018-07-30T10:46:00.986Z,37.50
2018-07-30T10:47:00.976Z,40.64
2018-07-30T10:48:00.966Z,38.68
2018-07-30T10:49:00.957Z,38.31
2018-07-30T10:50:00.956Z,40.16
2018-07-30T10:51:00.940Z,37.80
2018-07-30T10:52:00.935Z,42.80
2018-07-30T10:53:00.918Z,38.07
2018-07-30T10:54:00.903Z,39.25
2018-07-30T10:55:00.895Z,38.85
2018-07-30T10:56:00.891Z,39.25
2018-07-30T10:57:00.876Z,40.62
2018-07-30T10:58:00.875Z,38.56
2018-07-30T10:59:00.852Z,38.17
2018-07-30T11:00:00.852Z,40.53
2018-07-30T11:01:00.841Z,39.62
2018-07-30T11:02:00.832Z,40.90
2018-07-30T11:03:00.819Z,39.53
2018-07-30T11:04:00.804Z,38.15
2018-07-30T11:05:00.792Z,38.15
2018-07-30T11:06:00.782Z,36.58
2018-07-30T11:07:00.775Z,38.33
2018-07-30T11:08:00.764Z,36.19
2018-07-30T11:09:00.754Z,37.56
2018-07-30T11:10:00.756Z,42.25
2018-07-30T11:11:00.745Z,40.09
2018-07-30T11:12:00.727Z,36.37
2018-07-30T11:13:00.733Z,37.54
2018-07-30T11:14:00.745Z,37.84
2018-07-30T11:15:00.720Z,42.45
2018-07-30T11:16:00.682Z,36.27
2018-07-30T11:17:00.669Z,35.10
2018-07-30T11:18:00.686Z,36.78
2018-07-30T11:19:00.647Z,36.08
2018-07-30T11:20:00.640Z,40.09
2018-07-30T11:21:00.633Z,34.80
2018-07-30T11:22:00.626Z,36.08
2018-07-30T11:23:00.616Z,35.39
2018-07-30T11:24:00.610Z,36.08
2018-07-30T11:25:00.599Z,36.16
2018-07-30T11:26:00.584Z,36.25
2018-07-30T11:27:00.572Z,35.65
2018-07-30T11:28:00.639Z,34.28
2018-07-30T11:29:00.565Z,34.65
2018-07-30T11:30:00.556Z,33.85
2018-07-30T11:31:00.536Z,34.64
2018-07-30T11:32:00.527Z,33.62
2018-07-30T11:33:00.521Z,31.96
2018-07-30T11:34:00.557Z,33.43
2018-07-30T11:35:00.516Z,33.80
2018-07-30T11:36:00.499Z,34.48
2018-07-30T11:37:00.485Z,33.80
2018-07-30T11:38:00.493Z,33.59
2018-07-30T11:39:00.466Z,36.60
2018-07-30T11:40:00.468Z,33.56
2018-07-30T11:41:00.458Z,30.90
2018-07-30T11:42:00.441Z,30.51
2018-07-30T11:43:00.485Z,33.62
2018-07-30T11:44:00.425Z,36.92
2018-07-30T11:45:00.414Z,31.84
2018-07-30T11:46:00.416Z,30.44
2018-07-30T11:47:00.398Z,31.79
2018-07-30T11:48:00.403Z,30.02
2018-07-30T11:49:00.385Z,29.41
2018-07-30T11:50:00.378Z,27.96
2018-07-30T11:51:00.370Z,28.14
2018-07-30T11:52:00.357Z,28.32
2018-07-30T11:53:00.363Z,28.11
2018-07-30T11:54:00.408Z,27.22
2018-07-30T11:55:00.382Z,27.98
2018-07-30T11:56:00.336Z,28.58
2018-07-30T11:57:00.355Z,27.92
2018-07-30T11:58:00.349Z,28.02
2018-07-30T11:59:00.329Z,28.28
2018-07-30T12:00:00.292Z,29.92
2018-07-30T12:01:00.347Z,29.13
2018-07-30T12:02:00.289Z,27.85
2018-07-30T12:03:00.286Z,27.15
2018-07-30T12:04:00.263Z,30.33
2018-07-30T12:05:00.263Z,25.60
2018-07-30T12:06:00.259Z,26.95
2018-07-30T12:07:00.248Z,28.87
2018-07-30T12:08:00.286Z,26.56
2018-07-30T12:09:00.233Z,27.35
2018-07-30T12:10:00.230Z,28.23
2018-07-30T12:11:00.270Z,27.73
2018-07-30T12:12:00.208Z,27.23
2018-07-30T12:13:00.210Z,27.98
2018-07-30T12:14:00.202Z,24.60
2018-07-30T12:15:00.196Z,25.87
2018-07-30T12:16:00.195Z,26.08
2018-07-30T12:17:00.173Z,29.06
2018-07-30T12:18:00.175Z,24.34
2018-07-30T12:19:00.165Z,25.81
2018-07-30T12:20:00.184Z,26.50
2018-07-30T12:21:00.146Z,27.10
2018-07-30T12:22:00.151Z,26.42
2018-07-30T12:23:00.137Z,28.04
2018-07-30T12:24:00.124Z,27.91
2018-07-30T12:25:00.128Z,26.53
2018-07-30T12:26:00.117Z,27.91
2018-07-30T12:27:00.127Z,28.86
2018-07-30T12:28:00.100Z,30.85
2018-07-30T12:29:00.085Z,27.26
2018-07-30T12:30:00.110Z,29.33
2018-07-30T12:31:00.072Z,31.41
2018-07-30T12:32:00.089Z,31.93
2018-07-30T12:33:00.062Z,31.21
2018-07-30T12:34:00.052Z,29.33
2018-07-30T12:35:00.039Z,28.14
2018-07-30T12:36:00.028Z,28.77
2018-07-30T12:37:00.031Z,26.10
2018-07-30T12:38:00.029Z,24.16
2018-07-30T12:39:00.011Z,26.26
2018-07-30T12:40:00.005Z,26.81
2018-07-30T12:40:59.993Z,27.75
2018-07-30T12:42:00.069Z,25.49
2018-07-30T12:43:00.042Z,27.02
2018-07-30T12:43:59.971Z,24.51
2018-07-30T12:44:59.994Z,26.79
2018-07-30T12:45:59.982Z,24.02
2018-07-30T12:46:59.969Z,26.97
2018-07-30T12:47:59.983Z,22.39
2018-07-30T12:48:59.936Z,24.14
2018-07-30T12:49:59.929Z,24.98
2018-07-30T12:50:59.929Z,26.04
2018-07-30T12:51:59.927Z,28.00